sensor_id;sensor_type;location;lat;lon;timestamp;temperature;humidity
69189;DHT22;56302;52.322;5.926;2023-04-06T00:00:52;0.10;74.30
69189;DHT22;56302;52.322;5.926;2023-04-06T00:03:18;0.20;73.70
69189;DHT22;56302;52.322;5.926;2023-04-06T00:05:43;0.30;72.30
69189;DHT22;56302;52.322;5.926;2023-04-06T00:08:09;0.30;72.10
69189;DHT22;56302;52.322;5.926;2023-04-06T00:10:35;-0.10;75.00
69189;DHT22;56302;52.322;5.926;2023-04-06T00:13:00;-0.10;75.30
69189;DHT22;56302;52.322;5.926;2023-04-06T00:15:26;0.10;74.20
69189;DHT22;56302;52.322;5.926;2023-04-06T00:17:52;0.00;75.70
69189;DHT22;56302;52.322;5.926;2023-04-06T00:20:17;-0.10;74.80
69189;DHT22;56302;52.322;5.926;2023-04-06T00:22:43;0.00;74.30
69189;DHT22;56302;52.322;5.926;2023-04-06T00:25:09;-0.10;74.70
69189;DHT22;56302;52.322;5.926;2023-04-06T00:27:37;-0.40;76.20
69189;DHT22;56302;52.322;5.926;2023-04-06T00:30:04;-0.20;74.90
69189;DHT22;56302;52.322;5.926;2023-04-06T00:32:30;-0.30;74.70
69189;DHT22;56302;52.322;5.926;2023-04-06T00:34:56;-0.20;74.50
69189;DHT22;56302;52.322;5.926;2023-04-06T00:37:21;-0.40;76.30
69189;DHT22;56302;52.322;5.926;2023-04-06T00:39:47;-0.30;75.00
69189;DHT22;56302;52.322;5.926;2023-04-06T00:42:13;-0.30;74.90
69189;DHT22;56302;52.322;5.926;2023-04-06T00:44:40;-0.20;74.20
69189;DHT22;56302;52.322;5.926;2023-04-06T00:47:05;-0.20;74.00
69189;DHT22;56302;52.322;5.926;2023-04-06T00:49:32;-0.20;73.50
69189;DHT22;56302;52.322;5.926;2023-04-06T00:51:58;-0.20;73.30
69189;DHT22;56302;52.322;5.926;2023-04-06T00:54:23;-0.10;73.30
69189;DHT22;56302;52.322;5.926;2023-04-06T00:56:49;-0.20;73.30
69189;DHT22;56302;52.322;5.926;2023-04-06T00:59:15;-0.20;73.40
69189;DHT22;56302;52.322;5.926;2023-04-06T01:01:40;-0.20;73.00
69189;DHT22;56302;52.322;5.926;2023-04-06T01:04:06;-0.30;73.30
69189;DHT22;56302;52.322;5.926;2023-04-06T01:06:31;-0.30;73.20
69189;DHT22;56302;52.322;5.926;2023-04-06T01:08:57;-0.30;72.70
69189;DHT22;56302;52.322;5.926;2023-04-06T01:11:23;-0.30;72.60
69189;DHT22;56302;52.322;5.926;2023-04-06T01:13:48;-0.30;73.20
69189;DHT22;56302;52.322;5.926;2023-04-06T01:16:14;-0.40;73.10
69189;DHT22;56302;52.322;5.926;2023-04-06T01:18:40;-0.40;73.00
69189;DHT22;56302;52.322;5.926;2023-04-06T01:21:05;-0.40;73.20
69189;DHT22;56302;52.322;5.926;2023-04-06T01:23:34;-0.50;73.60
69189;DHT22;56302;52.322;5.926;2023-04-06T01:26:00;-0.50;73.20
69189;DHT22;56302;52.322;5.926;2023-04-06T01:28:25;-0.50;72.50
69189;DHT22;56302;52.322;5.926;2023-04-06T01:30:51;-0.50;73.40
69189;DHT22;56302;52.322;5.926;2023-04-06T01:33:16;-0.60;74.10
69189;DHT22;56302;52.322;5.926;2023-04-06T01:35:42;-0.60;74.50
69189;DHT22;56302;52.322;5.926;2023-04-06T01:38:07;-0.60;73.80
69189;DHT22;56302;52.322;5.926;2023-04-06T01:40:33;-0.70;74.70
69189;DHT22;56302;52.322;5.926;2023-04-06T01:42:58;-0.70;74.80
69189;DHT22;56302;52.322;5.926;2023-04-06T01:45:24;-0.90;76.50
69189;DHT22;56302;52.322;5.926;2023-04-06T01:47:50;-1.20;79.10
69189;DHT22;56302;52.322;5.926;2023-04-06T01:50:16;-1.10;78.20
69189;DHT22;56302;52.322;5.926;2023-04-06T01:52:41;-1.00;77.10
69189;DHT22;56302;52.322;5.926;2023-04-06T01:55:07;-1.00;76.30
69189;DHT22;56302;52.322;5.926;2023-04-06T01:57:32;-0.90;75.80
69189;DHT22;56302;52.322;5.926;2023-04-06T01:59:58;-0.90;75.90
69189;DHT22;56302;52.322;5.926;2023-04-06T02:02:24;-0.90;75.50
69189;DHT22;56302;52.322;5.926;2023-04-06T02:04:50;-0.90;75.20
69189;DHT22;56302;52.322;5.926;2023-04-06T02:07:15;-1.00;75.30
69189;DHT22;56302;52.322;5.926;2023-04-06T02:09:41;-0.90;76.00
69189;DHT22;56302;52.322;5.926;2023-04-06T02:12:06;-1.20;76.70
69189;DHT22;56302;52.322;5.926;2023-04-06T02:14:32;-1.30;78.20
69189;DHT22;56302;52.322;5.926;2023-04-06T02:16:58;-1.20;77.80
69189;DHT22;56302;52.322;5.926;2023-04-06T02:19:23;-1.20;76.90
69189;DHT22;56302;52.322;5.926;2023-04-06T02:21:49;-1.20;76.70
69189;DHT22;56302;52.322;5.926;2023-04-06T02:24:14;-1.20;76.50
69189;DHT22;56302;52.322;5.926;2023-04-06T02:26:40;-1.40;78.20
69189;DHT22;56302;52.322;5.926;2023-04-06T02:29:05;-1.60;81.10
69189;DHT22;56302;52.322;5.926;2023-04-06T02:31:32;-1.70;83.00
69189;DHT22;56302;52.322;5.926;2023-04-06T02:33:57;-1.70;82.60
69189;DHT22;56302;52.322;5.926;2023-04-06T02:36:23;-1.60;81.00
69189;DHT22;56302;52.322;5.926;2023-04-06T02:38:48;-1.50;80.10
69189;DHT22;56302;52.322;5.926;2023-04-06T02:41:14;-1.50;79.60
69189;DHT22;56302;52.322;5.926;2023-04-06T02:43:40;-1.40;79.60
69189;DHT22;56302;52.322;5.926;2023-04-06T02:46:05;-1.40;79.00
69189;DHT22;56302;52.322;5.926;2023-04-06T02:48:31;-1.40;78.00
69189;DHT22;56302;52.322;5.926;2023-04-06T02:50:56;-1.40;77.70
69189;DHT22;56302;52.322;5.926;2023-04-06T02:53:22;-1.30;77.70
69189;DHT22;56302;52.322;5.926;2023-04-06T02:55:47;-1.30;77.90
69189;DHT22;56302;52.322;5.926;2023-04-06T02:58:13;-1.40;78.40
69189;DHT22;56302;52.322;5.926;2023-04-06T03:00:38;-1.40;78.40
69189;DHT22;56302;52.322;5.926;2023-04-06T03:03:04;-1.50;79.10
69189;DHT22;56302;52.322;5.926;2023-04-06T03:05:29;-1.50;79.90
69189;DHT22;56302;52.322;5.926;2023-04-06T03:07:55;-1.50;80.10
69189;DHT22;56302;52.322;5.926;2023-04-06T03:10:21;-1.50;79.70
69189;DHT22;56302;52.322;5.926;2023-04-06T03:12:46;-1.50;80.00
69189;DHT22;56302;52.322;5.926;2023-04-06T03:15:12;-1.50;80.10
69189;DHT22;56302;52.322;5.926;2023-04-06T03:17:38;-1.60;81.00
69189;DHT22;56302;52.322;5.926;2023-04-06T03:20:04;-1.60;81.30
69189;DHT22;56302;52.322;5.926;2023-04-06T03:22:30;-1.60;81.30
69189;DHT22;56302;52.322;5.926;2023-04-06T03:24:56;-1.70;81.60
69189;DHT22;56302;52.322;5.926;2023-04-06T03:27:21;-1.80;82.80
69189;DHT22;56302;52.322;5.926;2023-04-06T03:29:46;-1.90;84.00
69189;DHT22;56302;52.322;5.926;2023-04-06T03:32:12;-2.00;85.40
69189;DHT22;56302;52.322;5.926;2023-04-06T03:34:38;-1.90;85.30
69189;DHT22;56302;52.322;5.926;2023-04-06T03:37:04;-1.80;84.90
69189;DHT22;56302;52.322;5.926;2023-04-06T03:39:30;-1.80;84.60
69189;DHT22;56302;52.322;5.926;2023-04-06T03:41:56;-1.90;85.20
69189;DHT22;56302;52.322;5.926;2023-04-06T03:44:21;-1.90;85.40
69189;DHT22;56302;52.322;5.926;2023-04-06T03:46:47;-1.90;85.70
69189;DHT22;56302;52.322;5.926;2023-04-06T03:49:12;-1.90;85.90
69189;DHT22;56302;52.322;5.926;2023-04-06T03:51:38;-1.90;85.80
69189;DHT22;56302;52.322;5.926;2023-04-06T03:54:04;-1.90;86.10
69189;DHT22;56302;52.322;5.926;2023-04-06T03:56:30;-1.80;85.50
69189;DHT22;56302;52.322;5.926;2023-04-06T03:58:55;-1.80;85.30
69189;DHT22;56302;52.322;5.926;2023-04-06T04:01:21;-1.70;84.80
69189;DHT22;56302;52.322;5.926;2023-04-06T04:03:47;-1.60;83.90
69189;DHT22;56302;52.322;5.926;2023-04-06T04:06:12;-1.70;84.90
69189;DHT22;56302;52.322;5.926;2023-04-06T04:08:38;-1.70;86.80
69189;DHT22;56302;52.322;5.926;2023-04-06T04:11:03;-1.80;88.30
69189;DHT22;56302;52.322;5.926;2023-04-06T04:13:29;-1.80;88.00
69189;DHT22;56302;52.322;5.926;2023-04-06T04:15:54;-1.70;86.10
69189;DHT22;56302;52.322;5.926;2023-04-06T04:18:20;-1.70;86.10
69189;DHT22;56302;52.322;5.926;2023-04-06T04:20:45;-1.70;87.40
69189;DHT22;56302;52.322;5.926;2023-04-06T04:23:11;-1.80;88.50
69189;DHT22;56302;52.322;5.926;2023-04-06T04:25:36;-1.80;89.00
69189;DHT22;56302;52.322;5.926;2023-04-06T04:28:02;-1.80;89.20
69189;DHT22;56302;52.322;5.926;2023-04-06T04:30:28;-1.80;89.50
69189;DHT22;56302;52.322;5.926;2023-04-06T04:32:53;-1.80;90.00
69189;DHT22;56302;52.322;5.926;2023-04-06T04:35:19;-1.80;90.30
69189;DHT22;56302;52.322;5.926;2023-04-06T04:37:45;-1.80;90.70
69189;DHT22;56302;52.322;5.926;2023-04-06T04:40:11;-1.80;91.00
69189;DHT22;56302;52.322;5.926;2023-04-06T04:42:36;-1.70;90.70
69189;DHT22;56302;52.322;5.926;2023-04-06T04:45:02;-1.70;90.30
69189;DHT22;56302;52.322;5.926;2023-04-06T04:47:27;-1.60;90.00
69189;DHT22;56302;52.322;5.926;2023-04-06T04:49:53;-1.60;90.10
69189;DHT22;56302;52.322;5.926;2023-04-06T04:52:18;-1.60;90.30
69189;DHT22;56302;52.322;5.926;2023-04-06T04:54:44;-1.60;90.20
69189;DHT22;56302;52.322;5.926;2023-04-06T04:57:12;-1.50;89.70
69189;DHT22;56302;52.322;5.926;2023-04-06T04:59:37;-1.50;89.30
69189;DHT22;56302;52.322;5.926;2023-04-06T05:02:03;-1.40;89.90
69189;DHT22;56302;52.322;5.926;2023-04-06T05:04:28;-1.30;90.00
69189;DHT22;56302;52.322;5.926;2023-04-06T05:07:10;-1.20;90.80
69189;DHT22;56302;52.322;5.926;2023-04-06T05:09:35;-1.20;91.80
69189;DHT22;56302;52.322;5.926;2023-04-06T05:12:01;-1.20;92.20
69189;DHT22;56302;52.322;5.926;2023-04-06T05:14:27;-1.20;92.20
69189;DHT22;56302;52.322;5.926;2023-04-06T05:16:53;-1.10;91.50
69189;DHT22;56302;52.322;5.926;2023-04-06T05:19:19;-1.00;90.50
69189;DHT22;56302;52.322;5.926;2023-04-06T05:21:45;-1.00;90.00
69189;DHT22;56302;52.322;5.926;2023-04-06T05:24:10;-1.00;90.00
69189;DHT22;56302;52.322;5.926;2023-04-06T05:26:36;-0.90;89.70
69189;DHT22;56302;52.322;5.926;2023-04-06T05:29:01;-0.90;89.80
69189;DHT22;56302;52.322;5.926;2023-04-06T05:31:27;-0.90;90.30
69189;DHT22;56302;52.322;5.926;2023-04-06T05:33:52;-0.80;90.80
69189;DHT22;56302;52.322;5.926;2023-04-06T05:36:18;-0.80;91.30
69189;DHT22;56302;52.322;5.926;2023-04-06T05:38:43;-0.80;91.70
69189;DHT22;56302;52.322;5.926;2023-04-06T05:41:09;-0.70;92.10
69189;DHT22;56302;52.322;5.926;2023-04-06T05:43:36;-0.60;92.20
69189;DHT22;56302;52.322;5.926;2023-04-06T05:46:01;-0.50;92.30
69189;DHT22;56302;52.322;5.926;2023-04-06T05:48:27;-0.30;92.20
69189;DHT22;56302;52.322;5.926;2023-04-06T05:50:53;-0.10;91.90
69189;DHT22;56302;52.322;5.926;2023-04-06T05:53:18;0.00;91.60
69189;DHT22;56302;52.322;5.926;2023-04-06T05:55:46;0.10;90.70
69189;DHT22;56302;52.322;5.926;2023-04-06T05:58:12;0.20;89.40
69189;DHT22;56302;52.322;5.926;2023-04-06T06:00:37;0.30;88.60
69189;DHT22;56302;52.322;5.926;2023-04-06T06:03:03;0.40;88.40
69189;DHT22;56302;52.322;5.926;2023-04-06T06:05:31;0.60;88.50
69189;DHT22;56302;52.322;5.926;2023-04-06T06:07:57;0.80;87.70
69189;DHT22;56302;52.322;5.926;2023-04-06T06:10:22;0.90;86.90
69189;DHT22;56302;52.322;5.926;2023-04-06T06:12:48;1.00;86.00
69189;DHT22;56302;52.322;5.926;2023-04-06T06:15:14;1.10;85.70
69189;DHT22;56302;52.322;5.926;2023-04-06T06:17:39;1.10;85.00
69189;DHT22;56302;52.322;5.926;2023-04-06T06:20:06;1.10;84.80
69189;DHT22;56302;52.322;5.926;2023-04-06T06:22:32;1.20;84.60
69189;DHT22;56302;52.322;5.926;2023-04-06T06:24:58;1.40;84.50
69189;DHT22;56302;52.322;5.926;2023-04-06T06:27:23;1.50;83.90
69189;DHT22;56302;52.322;5.926;2023-04-06T06:29:49;1.70;83.40
69189;DHT22;56302;52.322;5.926;2023-04-06T06:32:14;1.90;83.10
69189;DHT22;56302;52.322;5.926;2023-04-06T06:34:40;2.20;82.20
69189;DHT22;56302;52.322;5.926;2023-04-06T06:37:06;2.30;81.50
69189;DHT22;56302;52.322;5.926;2023-04-06T06:39:31;2.60;80.80
69189;DHT22;56302;52.322;5.926;2023-04-06T06:41:57;2.90;79.70
69189;DHT22;56302;52.322;5.926;2023-04-06T06:44:22;3.10;78.90
69189;DHT22;56302;52.322;5.926;2023-04-06T06:46:48;3.20;77.50
69189;DHT22;56302;52.322;5.926;2023-04-06T06:49:13;3.30;77.10
69189;DHT22;56302;52.322;5.926;2023-04-06T06:51:39;3.50;77.10
69189;DHT22;56302;52.322;5.926;2023-04-06T06:54:05;3.60;76.10
69189;DHT22;56302;52.322;5.926;2023-04-06T06:56:31;3.70;76.60
69189;DHT22;56302;52.322;5.926;2023-04-06T06:58:56;3.80;75.40
69189;DHT22;56302;52.322;5.926;2023-04-06T07:01:22;4.00;75.20
69189;DHT22;56302;52.322;5.926;2023-04-06T07:03:47;4.10;74.00
69189;DHT22;56302;52.322;5.926;2023-04-06T07:06:13;4.20;74.50
69189;DHT22;56302;52.322;5.926;2023-04-06T07:08:38;4.30;74.80
69189;DHT22;56302;52.322;5.926;2023-04-06T07:11:04;4.70;74.10
69189;DHT22;56302;52.322;5.926;2023-04-06T07:13:29;5.10;73.40
69189;DHT22;56302;52.322;5.926;2023-04-06T07:15:55;5.30;72.20
69189;DHT22;56302;52.322;5.926;2023-04-06T07:18:21;5.70;71.40
69189;DHT22;56302;52.322;5.926;2023-04-06T07:20:47;6.00;69.50
69189;DHT22;56302;52.322;5.926;2023-04-06T07:23:13;6.50;69.20
69189;DHT22;56302;52.322;5.926;2023-04-06T07:25:38;6.60;69.50
69189;DHT22;56302;52.322;5.926;2023-04-06T07:28:04;6.80;67.70
69189;DHT22;56302;52.322;5.926;2023-04-06T07:30:30;6.80;68.20
69189;DHT22;56302;52.322;5.926;2023-04-06T07:32:56;6.70;67.80
69189;DHT22;56302;52.322;5.926;2023-04-06T07:35:25;6.60;66.80
69189;DHT22;56302;52.322;5.926;2023-04-06T07:37:54;6.60;67.40
69189;DHT22;56302;52.322;5.926;2023-04-06T07:40:20;6.70;67.20
69189;DHT22;56302;52.322;5.926;2023-04-06T07:42:46;6.80;67.70
69189;DHT22;56302;52.322;5.926;2023-04-06T07:45:12;6.80;67.60
69189;DHT22;56302;52.322;5.926;2023-04-06T07:47:37;6.80;67.90
69189;DHT22;56302;52.322;5.926;2023-04-06T07:50:03;6.70;67.40
69189;DHT22;56302;52.322;5.926;2023-04-06T07:52:29;6.60;68.50
69189;DHT22;56302;52.322;5.926;2023-04-06T07:54:55;6.70;67.10
69189;DHT22;56302;52.322;5.926;2023-04-06T07:57:20;6.70;68.00
69189;DHT22;56302;52.322;5.926;2023-04-06T07:59:46;6.80;68.70
69189;DHT22;56302;52.322;5.926;2023-04-06T08:02:11;6.90;67.90
69189;DHT22;56302;52.322;5.926;2023-04-06T08:04:37;7.00;66.10
69189;DHT22;56302;52.322;5.926;2023-04-06T08:07:02;7.20;65.70
69189;DHT22;56302;52.322;5.926;2023-04-06T08:09:28;7.30;64.40
69189;DHT22;56302;52.322;5.926;2023-04-06T08:11:53;7.60;63.80
69189;DHT22;56302;52.322;5.926;2023-04-06T08:14:19;7.80;63.90
69189;DHT22;56302;52.322;5.926;2023-04-06T08:16:46;7.70;64.40
69189;DHT22;56302;52.322;5.926;2023-04-06T08:19:11;7.80;66.10
69189;DHT22;56302;52.322;5.926;2023-04-06T08:21:37;8.00;64.50
69189;DHT22;56302;52.322;5.926;2023-04-06T08:24:03;8.20;64.40
69189;DHT22;56302;52.322;5.926;2023-04-06T08:26:29;8.40;63.10
69189;DHT22;56302;52.322;5.926;2023-04-06T08:28:54;8.60;64.40
69189;DHT22;56302;52.322;5.926;2023-04-06T08:31:20;8.70;62.70
69189;DHT22;56302;52.322;5.926;2023-04-06T08:33:46;8.40;62.20
69189;DHT22;56302;52.322;5.926;2023-04-06T08:36:13;8.30;63.90
69189;DHT22;56302;52.322;5.926;2023-04-06T08:38:39;8.30;63.30
69189;DHT22;56302;52.322;5.926;2023-04-06T08:43:48;8.20;62.30
69189;DHT22;56302;52.322;5.926;2023-04-06T08:46:14;8.20;62.40
69189;DHT22;56302;52.322;5.926;2023-04-06T08:48:41;8.30;63.20
69189;DHT22;56302;52.322;5.926;2023-04-06T08:51:08;8.30;62.40
69189;DHT22;56302;52.322;5.926;2023-04-06T08:53:34;8.30;60.60
69189;DHT22;56302;52.322;5.926;2023-04-06T08:56:01;8.30;60.60
69189;DHT22;56302;52.322;5.926;2023-04-06T08:58:31;8.40;59.90
69189;DHT22;56302;52.322;5.926;2023-04-06T09:00:57;8.50;60.20
69189;DHT22;56302;52.322;5.926;2023-04-06T09:03:26;8.80;61.60
69189;DHT22;56302;52.322;5.926;2023-04-06T09:05:51;8.80;58.80
69189;DHT22;56302;52.322;5.926;2023-04-06T09:08:17;8.90;60.40
69189;DHT22;56302;52.322;5.926;2023-04-06T09:10:42;8.90;59.20
69189;DHT22;56302;52.322;5.926;2023-04-06T09:13:09;8.80;58.20
69189;DHT22;56302;52.322;5.926;2023-04-06T09:15:34;8.90;59.20
69189;DHT22;56302;52.322;5.926;2023-04-06T09:18:01;8.90;59.10
69189;DHT22;56302;52.322;5.926;2023-04-06T09:20:26;9.10;58.80
69189;DHT22;56302;52.322;5.926;2023-04-06T09:22:53;9.30;58.80
69189;DHT22;56302;52.322;5.926;2023-04-06T09:25:21;9.20;57.70
69189;DHT22;56302;52.322;5.926;2023-04-06T09:27:48;9.40;58.50
69189;DHT22;56302;52.322;5.926;2023-04-06T09:30:15;9.60;58.00
69189;DHT22;56302;52.322;5.926;2023-04-06T09:32:46;9.70;56.30
69189;DHT22;56302;52.322;5.926;2023-04-06T09:35:12;9.90;57.70
69189;DHT22;56302;52.322;5.926;2023-04-06T09:37:38;9.90;58.20
69189;DHT22;56302;52.322;5.926;2023-04-06T09:40:07;10.20;55.00
69189;DHT22;56302;52.322;5.926;2023-04-06T09:42:33;10.30;54.00
69189;DHT22;56302;52.322;5.926;2023-04-06T09:45:00;10.30;54.40
69189;DHT22;56302;52.322;5.926;2023-04-06T09:47:26;10.50;53.70
69189;DHT22;56302;52.322;5.926;2023-04-06T09:49:56;10.80;52.90
69189;DHT22;56302;52.322;5.926;2023-04-06T09:52:33;10.90;53.10
69189;DHT22;56302;52.322;5.926;2023-04-06T09:55:05;10.90;51.00
69189;DHT22;56302;52.322;5.926;2023-04-06T09:57:58;11.10;52.90
69189;DHT22;56302;52.322;5.926;2023-04-06T10:00:25;11.20;51.90
69189;DHT22;56302;52.322;5.926;2023-04-06T10:03:06;11.30;52.00
69189;DHT22;56302;52.322;5.926;2023-04-06T10:05:53;11.20;51.00
69189;DHT22;56302;52.322;5.926;2023-04-06T10:08:21;11.20;51.90
69189;DHT22;56302;52.322;5.926;2023-04-06T10:10:50;11.10;48.40
69189;DHT22;56302;52.322;5.926;2023-04-06T10:13:16;11.10;49.70
69189;DHT22;56302;52.322;5.926;2023-04-06T10:15:44;11.30;50.60
69189;DHT22;56302;52.322;5.926;2023-04-06T10:18:10;11.40;50.90
69189;DHT22;56302;52.322;5.926;2023-04-06T10:20:56;11.50;50.40
69189;DHT22;56302;52.322;5.926;2023-04-06T10:23:35;11.40;49.10
69189;DHT22;56302;52.322;5.926;2023-04-06T10:26:02;11.50;50.00
69189;DHT22;56302;52.322;5.926;2023-04-06T10:28:32;11.60;48.30
69189;DHT22;56302;52.322;5.926;2023-04-06T10:31:01;11.20;49.70
69189;DHT22;56302;52.322;5.926;2023-04-06T10:33:27;11.30;49.60
69189;DHT22;56302;52.322;5.926;2023-04-06T10:35:53;11.40;49.30
69189;DHT22;56302;52.322;5.926;2023-04-06T10:38:20;11.50;50.20
69189;DHT22;56302;52.322;5.926;2023-04-06T10:40:47;11.60;50.70
69189;DHT22;56302;52.322;5.926;2023-04-06T10:43:19;11.70;50.90
69189;DHT22;56302;52.322;5.926;2023-04-06T10:45:55;11.70;49.70
69189;DHT22;56302;52.322;5.926;2023-04-06T10:48:21;11.70;50.70
69189;DHT22;56302;52.322;5.926;2023-04-06T10:50:48;11.70;50.20
69189;DHT22;56302;52.322;5.926;2023-04-06T10:53:22;11.70;49.90
69189;DHT22;56302;52.322;5.926;2023-04-06T10:55:50;11.70;50.50
69189;DHT22;56302;52.322;5.926;2023-04-06T10:58:16;11.80;51.40
69189;DHT22;56302;52.322;5.926;2023-04-06T11:00:46;11.80;50.30
69189;DHT22;56302;52.322;5.926;2023-04-06T11:03:11;11.60;51.30
69189;DHT22;56302;52.322;5.926;2023-04-06T11:05:37;11.60;52.00
69189;DHT22;56302;52.322;5.926;2023-04-06T11:08:03;11.70;53.10
69189;DHT22;56302;52.322;5.926;2023-04-06T11:10:28;11.80;54.10
69189;DHT22;56302;52.322;5.926;2023-04-06T11:12:56;11.90;53.30
69189;DHT22;56302;52.322;5.926;2023-04-06T11:15:22;11.90;53.40
69189;DHT22;56302;52.322;5.926;2023-04-06T11:17:47;11.90;54.90
69189;DHT22;56302;52.322;5.926;2023-04-06T11:20:14;12.00;55.00
69189;DHT22;56302;52.322;5.926;2023-04-06T11:22:53;11.80;55.40
69189;DHT22;56302;52.322;5.926;2023-04-06T11:25:18;11.70;56.80
69189;DHT22;56302;52.322;5.926;2023-04-06T11:27:46;11.60;56.70
69189;DHT22;56302;52.322;5.926;2023-04-06T11:30:12;11.50;56.60
69189;DHT22;56302;52.322;5.926;2023-04-06T11:32:43;11.40;57.20
69189;DHT22;56302;52.322;5.926;2023-04-06T11:35:26;11.40;57.80
69189;DHT22;56302;52.322;5.926;2023-04-06T11:37:52;11.50;57.50
69189;DHT22;56302;52.322;5.926;2023-04-06T11:40:21;11.60;57.60
69189;DHT22;56302;52.322;5.926;2023-04-06T11:42:55;11.60;56.80
69189;DHT22;56302;52.322;5.926;2023-04-06T11:45:21;11.60;57.00
69189;DHT22;56302;52.322;5.926;2023-04-06T11:47:56;11.70;57.80
69189;DHT22;56302;52.322;5.926;2023-04-06T11:50:22;11.60;57.90
69189;DHT22;56302;52.322;5.926;2023-04-06T11:52:58;11.60;57.70
69189;DHT22;56302;52.322;5.926;2023-04-06T11:55:24;11.60;58.80
69189;DHT22;56302;52.322;5.926;2023-04-06T11:57:50;11.60;58.60
69189;DHT22;56302;52.322;5.926;2023-04-06T12:00:17;11.50;59.70
69189;DHT22;56302;52.322;5.926;2023-04-06T12:02:45;11.30;59.70
69189;DHT22;56302;52.322;5.926;2023-04-06T12:05:11;11.10;59.00
69189;DHT22;56302;52.322;5.926;2023-04-06T12:07:37;11.00;60.30
69189;DHT22;56302;52.322;5.926;2023-04-06T12:10:03;11.00;62.50
69189;DHT22;56302;52.322;5.926;2023-04-06T12:12:29;11.10;63.60
69189;DHT22;56302;52.322;5.926;2023-04-06T12:14:55;10.90;61.00
69189;DHT22;56302;52.322;5.926;2023-04-06T12:17:21;10.80;63.40
69189;DHT22;56302;52.322;5.926;2023-04-06T12:19:47;10.80;64.90
69189;DHT22;56302;52.322;5.926;2023-04-06T12:22:12;11.00;64.60
69189;DHT22;56302;52.322;5.926;2023-04-06T12:24:38;11.00;64.90
69189;DHT22;56302;52.322;5.926;2023-04-06T12:27:03;11.00;65.20
69189;DHT22;56302;52.322;5.926;2023-04-06T12:29:29;10.90;65.70
69189;DHT22;56302;52.322;5.926;2023-04-06T12:31:54;10.90;65.40
69189;DHT22;56302;52.322;5.926;2023-04-06T12:34:20;10.90;65.40
69189;DHT22;56302;52.322;5.926;2023-04-06T12:36:45;10.80;66.30
69189;DHT22;56302;52.322;5.926;2023-04-06T12:39:11;10.70;66.70
69189;DHT22;56302;52.322;5.926;2023-04-06T12:41:37;10.60;67.30
69189;DHT22;56302;52.322;5.926;2023-04-06T12:44:05;10.50;68.00
69189;DHT22;56302;52.322;5.926;2023-04-06T12:46:31;10.40;68.90
69189;DHT22;56302;52.322;5.926;2023-04-06T12:48:56;10.30;69.90
69189;DHT22;56302;52.322;5.926;2023-04-06T12:51:24;10.30;69.60
69189;DHT22;56302;52.322;5.926;2023-04-06T12:53:50;10.20;72.50
69189;DHT22;56302;52.322;5.926;2023-04-06T12:56:17;10.10;72.10
69189;DHT22;56302;52.322;5.926;2023-04-06T12:58:44;10.10;72.10
69189;DHT22;56302;52.322;5.926;2023-04-06T13:01:10;10.10;71.40
69189;DHT22;56302;52.322;5.926;2023-04-06T13:03:38;10.00;72.20
69189;DHT22;56302;52.322;5.926;2023-04-06T13:06:03;10.10;72.50
69189;DHT22;56302;52.322;5.926;2023-04-06T13:08:29;10.00;73.50
69189;DHT22;56302;52.322;5.926;2023-04-06T13:10:55;9.90;73.10
69189;DHT22;56302;52.322;5.926;2023-04-06T13:13:26;9.80;73.60
69189;DHT22;56302;52.322;5.926;2023-04-06T13:15:53;9.80;74.50
69189;DHT22;56302;52.322;5.926;2023-04-06T13:18:19;9.80;74.00
69189;DHT22;56302;52.322;5.926;2023-04-06T13:20:47;9.90;73.90
69189;DHT22;56302;52.322;5.926;2023-04-06T13:23:13;9.80;74.60
69189;DHT22;56302;52.322;5.926;2023-04-06T13:25:38;9.80;74.40
69189;DHT22;56302;52.322;5.926;2023-04-06T13:28:04;9.80;75.00
69189;DHT22;56302;52.322;5.926;2023-04-06T13:30:29;9.80;75.00
69189;DHT22;56302;52.322;5.926;2023-04-06T13:32:55;9.60;74.70
69189;DHT22;56302;52.322;5.926;2023-04-06T13:35:21;9.50;75.20
69189;DHT22;56302;52.322;5.926;2023-04-06T13:37:47;9.40;74.30
69189;DHT22;56302;52.322;5.926;2023-04-06T13:40:13;9.20;74.50
69189;DHT22;56302;52.322;5.926;2023-04-06T13:42:39;9.00;76.30
69189;DHT22;56302;52.322;5.926;2023-04-06T13:45:06;9.10;76.50
69189;DHT22;56302;52.322;5.926;2023-04-06T13:47:32;9.10;76.20
69189;DHT22;56302;52.322;5.926;2023-04-06T13:49:57;9.10;76.70
69189;DHT22;56302;52.322;5.926;2023-04-06T13:52:23;9.10;77.00
69189;DHT22;56302;52.322;5.926;2023-04-06T13:54:49;9.00;77.60
69189;DHT22;56302;52.322;5.926;2023-04-06T13:57:15;9.00;77.10
69189;DHT22;56302;52.322;5.926;2023-04-06T13:59:41;8.90;78.30
69189;DHT22;56302;52.322;5.926;2023-04-06T14:02:08;8.90;78.30
69189;DHT22;56302;52.322;5.926;2023-04-06T14:04:34;8.80;77.30
69189;DHT22;56302;52.322;5.926;2023-04-06T14:07:01;8.80;78.60
69189;DHT22;56302;52.322;5.926;2023-04-06T14:09:28;8.80;79.10
69189;DHT22;56302;52.322;5.926;2023-04-06T14:11:53;8.80;79.20
69189;DHT22;56302;52.322;5.926;2023-04-06T14:14:20;8.80;79.40
69189;DHT22;56302;52.322;5.926;2023-04-06T14:16:46;8.70;78.40
69189;DHT22;56302;52.322;5.926;2023-04-06T14:19:13;8.70;77.70
69189;DHT22;56302;52.322;5.926;2023-04-06T14:21:41;8.60;78.60
69189;DHT22;56302;52.322;5.926;2023-04-06T14:24:07;8.50;78.80
69189;DHT22;56302;52.322;5.926;2023-04-06T14:26:34;8.40;79.40
69189;DHT22;56302;52.322;5.926;2023-04-06T14:29:00;8.40;79.50
69189;DHT22;56302;52.322;5.926;2023-04-06T14:31:26;8.30;80.40
69189;DHT22;56302;52.322;5.926;2023-04-06T14:33:52;8.40;80.20
69189;DHT22;56302;52.322;5.926;2023-04-06T14:36:18;8.30;79.90
69189;DHT22;56302;52.322;5.926;2023-04-06T14:38:43;8.40;80.80
69189;DHT22;56302;52.322;5.926;2023-04-06T14:41:19;8.50;80.30
69189;DHT22;56302;52.322;5.926;2023-04-06T14:43:46;8.50;80.70
69189;DHT22;56302;52.322;5.926;2023-04-06T14:46:12;8.40;81.40
69189;DHT22;56302;52.322;5.926;2023-04-06T14:48:37;8.40;81.70
69189;DHT22;56302;52.322;5.926;2023-04-06T14:51:03;8.40;81.50
69189;DHT22;56302;52.322;5.926;2023-04-06T14:53:29;8.40;82.10
69189;DHT22;56302;52.322;5.926;2023-04-06T14:55:55;8.40;82.00
69189;DHT22;56302;52.322;5.926;2023-04-06T14:58:22;8.30;82.20
69189;DHT22;56302;52.322;5.926;2023-04-06T15:00:48;8.40;82.70
69189;DHT22;56302;52.322;5.926;2023-04-06T15:03:14;8.40;82.90
69189;DHT22;56302;52.322;5.926;2023-04-06T15:05:40;8.30;83.20
69189;DHT22;56302;52.322;5.926;2023-04-06T15:08:06;8.20;83.30
69189;DHT22;56302;52.322;5.926;2023-04-06T15:10:34;8.30;83.80
69189;DHT22;56302;52.322;5.926;2023-04-06T15:13:00;8.20;83.40
69189;DHT22;56302;52.322;5.926;2023-04-06T15:15:25;8.20;84.40
69189;DHT22;56302;52.322;5.926;2023-04-06T15:17:51;8.10;85.00
69189;DHT22;56302;52.322;5.926;2023-04-06T15:20:17;8.10;85.00
69189;DHT22;56302;52.322;5.926;2023-04-06T15:22:42;8.20;85.30
69189;DHT22;56302;52.322;5.926;2023-04-06T15:25:08;8.20;85.30
69189;DHT22;56302;52.322;5.926;2023-04-06T15:27:33;8.10;85.20
69189;DHT22;56302;52.322;5.926;2023-04-06T15:29:59;8.10;85.80
69189;DHT22;56302;52.322;5.926;2023-04-06T15:32:25;8.10;86.00
69189;DHT22;56302;52.322;5.926;2023-04-06T15:34:52;8.20;86.20